Time;durP1;ratioP1;P1;durP2;ratioP2;P2;SDS_P1;SDS_P2;PMS_P1;PMS_P2;Temp;Humidity;BMP_temperature;BMP_pressure;BME280_temperature;BME280_humidity;BME280_pressure;Samples;Min_cycle;Max_cycle;Signal;HPM_P1;HPM_P2
2023/01/18 00:01:15;;;;;;;7.55;2.45;;;9.80;96.70;;;;;;4971589;28;20073;-77
2023/01/18 00:03:43;;;;;;;8.27;1.88;;;9.90;96.70;;;;;;4985509;28;20046;-76
2023/01/18 00:06:13;;;;;;;4.38;1.27;;;9.90;96.70;;;;;;4980096;28;20581;-76
2023/01/18 00:08:42;;;;;;;5.35;1.10;;;9.90;96.70;;;;;;4958415;28;20173;-76
2023/01/18 00:11:14;;;;;;;6.70;1.55;;;9.90;96.70;;;;;;4969431;28;20065;-76
2023/01/18 00:13:43;;;;;;;6.05;1.40;;;9.90;96.70;;;;;;4974238;28;20042;-76
2023/01/18 00:16:13;;;;;;;4.72;1.05;;;9.80;96.70;;;;;;4968058;28;20493;-76
2023/01/18 00:18:42;;;;;;;3.42;0.80;;;9.80;96.70;;;;;;4957276;28;20046;-76
2023/01/18 00:21:13;;;;;;;5.97;1.20;;;9.80;96.70;;;;;;4958618;28;20146;-76
2023/01/18 00:23:41;;;;;;;3.58;1.02;;;9.80;96.70;;;;;;4974573;28;20170;-76
2023/01/18 00:26:11;;;;;;;6.13;1.10;;;9.80;96.70;;;;;;4973037;28;20128;-76
2023/01/18 00:28:40;;;;;;;5.53;0.93;;;9.80;96.70;;;;;;4975263;28;20038;-75
2023/01/18 00:31:10;;;;;;;4.47;0.90;;;9.80;96.70;;;;;;4971197;28;20499;-75
2023/01/18 00:33:41;;;;;;;3.35;0.73;;;9.90;96.70;;;;;;4965822;28;20037;-76
2023/01/18 00:36:09;;;;;;;3.45;1.02;;;9.90;96.70;;;;;;4972320;28;20037;-75
2023/01/18 00:38:40;;;;;;;5.18;1.13;;;9.80;96.70;;;;;;4959574;28;20562;-76
2023/01/18 00:41:08;;;;;;;9.13;1.80;;;9.90;96.70;;;;;;4962347;28;20122;-75
2023/01/18 00:43:40;;;;;;;2.95;1.05;;;9.80;96.70;;;;;;4972694;28;20038;-75
2023/01/18 00:46:11;;;;;;;3.75;0.80;;;9.90;96.70;;;;;;4959633;28;20066;-77
2023/01/18 00:48:40;;;;;;;5.47;1.10;;;9.80;96.70;;;;;;4961381;28;20523;-77
2023/01/18 00:51:11;;;;;;;4.18;1.40;;;9.70;96.70;;;;;;4972471;28;20050;-77
2023/01/18 00:53:44;;;;;;;2.92;0.80;;;9.70;96.70;;;;;;4976273;28;20037;-77
2023/01/18 00:56:16;;;;;;;8.00;1.73;;;9.80;96.70;;;;;;4971678;28;20039;-77
2023/01/18 00:58:45;;;;;;;4.93;1.38;;;9.80;96.70;;;;;;4964111;28;20090;-77
2023/01/18 01:01:14;;;;;;;4.72;1.02;;;9.80;96.70;;;;;;4945654;28;20045;-77
2023/01/18 01:06:43;;;;;;;4.22;0.98;;;9.70;96.70;;;;;;4921272;28;20059;-78
2023/01/18 01:09:16;;;;;;;7.70;1.40;;;9.70;96.70;;;;;;4963502;28;20039;-77
2023/01/18 01:26:03;;;;;;;5.40;0.60;;;9.50;96.70;;;;;;4935183;29;20489;-77
2023/01/18 01:28:32;;;;;;;3.72;0.70;;;9.50;96.70;;;;;;4931610;28;20403;-78
2023/01/18 01:31:02;;;;;;;3.65;0.90;;;9.50;96.70;;;;;;4936616;29;20772;-79
2023/01/18 01:33:32;;;;;;;5.25;1.40;;;9.50;96.70;;;;;;4933837;28;20497;-77
2023/01/18 01:36:02;;;;;;;6.43;1.27;;;9.60;96.70;;;;;;4925446;29;20596;-77
2023/01/18 01:38:30;;;;;;;6.32;1.15;;;9.50;96.70;;;;;;4939976;29;20390;-78
2023/01/18 01:41:03;;;;;;;3.67;0.88;;;9.50;96.70;;;;;;4934781;29;20069;-78
2023/01/18 01:43:42;;;;;;;4.88;1.10;;;9.40;96.70;;;;;;4931478;29;20062;-78
2023/01/18 01:46:29;;;;;;;3.63;0.45;;;9.40;96.70;;;;;;4931733;29;20051;-78
2023/01/18 01:49:02;;;;;;;3.03;0.70;;;9.40;96.70;;;;;;4940828;28;20047;-79
2023/01/18 01:51:34;;;;;;;6.53;0.95;;;9.40;96.70;;;;;;4931532;29;20489;-79
2023/01/18 01:54:05;;;;;;;5.47;0.82;;;9.60;96.70;;;;;;4935180;28;20040;-78
2023/01/18 01:56:37;;;;;;;7.78;1.67;;;9.70;96.70;;;;;;4929725;29;20047;-77
2023/01/18 01:59:07;;;;;;;6.95;0.85;;;9.80;96.70;;;;;;4930136;28;20131;-79
2023/01/18 02:01:37;;;;;;;5.00;0.85;;;9.90;96.70;;;;;;4936198;28;20147;-77
2023/01/18 02:04:06;;;;;;;6.95;1.15;;;9.80;96.70;;;;;;4943385;28;20433;-78
2023/01/18 02:06:37;;;;;;;5.20;0.88;;;9.80;96.70;;;;;;4928179;29;20130;-77
2023/01/18 02:09:08;;;;;;;2.30;0.60;;;9.70;96.70;;;;;;4944238;28;20583;-77
2023/01/18 02:11:39;;;;;;;4.25;0.52;;;9.70;96.70;;;;;;4930599;29;20103;-77
2023/01/18 02:14:11;;;;;;;4.50;0.90;;;9.70;96.70;;;;;;4931976;28;20104;-75
2023/01/18 02:16:55;;;;;;;4.07;0.63;;;9.70;96.70;;;;;;4959923;28;20074;-77
2023/01/18 02:19:55;;;;;;;3.17;0.50;;;9.70;96.70;;;;;;4937312;29;20401;-77
2023/01/18 02:22:43;;;;;;;4.47;0.65;;;9.70;96.70;;;;;;4972854;28;20051;-77
2023/01/18 02:25:28;;;;;;;;;;;9.70;96.70;;;;;;5000443;28;20065;-77
2023/01/18 02:28:14;;;;;;;3.67;0.60;;;9.70;96.70;;;;;;4980801;28;19926;-78
2023/01/18 02:30:48;;;;;;;3.35;0.47;;;9.70;96.70;;;;;;4969136;28;20057;-77
2023/01/18 02:33:25;;;;;;;5.25;1.10;;;9.70;96.70;;;;;;4966104;28;20061;-77
2023/01/18 02:35:55;;;;;;;4.20;1.60;;;9.70;96.70;;;;;;4964957;28;20146;-77
2023/01/18 02:38:27;;;;;;;3.65;0.60;;;9.60;96.70;;;;;;4982364;28;20050;-77
2023/01/18 02:41:10;;;;;;;8.30;0.88;;;9.60;96.70;;;;;;4982512;28;20125;-77
2023/01/18 02:46:30;;;;;;;4.47;0.80;;;9.60;96.70;;;;;;4974458;28;20129;-77
2023/01/18 02:49:02;;;;;;;2.97;1.15;;;9.50;96.70;;;;;;4964065;28;20058;-77
2023/01/18 02:51:30;;;;;;;6.25;0.98;;;9.40;96.70;;;;;;4971581;28;20125;-77
2023/01/18 02:53:59;;;;;;;3.88;0.90;;;9.40;96.70;;;;;;4980890;28;20043;-77
2023/01/18 02:56:33;;;;;;;6.28;0.70;;;9.40;96.70;;;;;;4968150;28;20451;-77
2023/01/18 02:59:08;;;;;;;3.33;0.60;;;9.30;96.70;;;;;;4981134;28;20607;-78
2023/01/18 03:01:41;;;;;;;4.18;0.50;;;9.30;96.70;;;;;;4974030;28;20090;-77
2023/01/18 03:04:14;;;;;;;4.60;0.60;;;9.30;96.70;;;;;;4964912;28;20047;-77
2023/01/18 03:06:46;;;;;;;2.95;0.63;;;9.30;96.70;;;;;;4974231;28;20926;-77
2023/01/18 03:09:20;;;;;;;2.70;0.40;;;9.20;96.70;;;;;;4972612;28;20165;-78
2023/01/18 03:11:56;;;;;;;4.90;0.60;;;9.10;96.70;;;;;;4982847;28;20421;-77
2023/01/18 03:14:38;;;;;;;5.72;0.85;;;9.10;96.70;;;;;;4998001;28;20058;-77
2023/01/18 03:17:13;;;;;;;3.65;0.93;;;9.10;96.70;;;;;;4982413;28;20146;-77
2023/01/18 03:25:27;;;;;;;4.95;1.23;;;9.00;96.70;;;;;;4975753;28;20054;-76
2023/01/18 03:33:44;;;;;;;5.72;1.10;;;9.20;96.70;;;;;;4966219;28;20094;-77
2023/01/18 03:36:19;;;;;;;3.22;0.60;;;9.20;96.70;;;;;;4963766;28;20125;-77
2023/01/18 03:38:52;;;;;;;3.70;0.77;;;9.20;96.70;;;;;;4961587;28;20128;-77
2023/01/18 03:41:22;;;;;;;6.30;1.77;;;9.20;96.70;;;;;;4977037;28;20758;-78
2023/01/18 03:43:52;;;;;;;5.05;0.98;;;9.30;96.70;;;;;;4972485;28;20046;-77
2023/01/18 03:46:25;;;;;;;3.17;0.60;;;9.30;96.70;;;;;;4978757;28;20049;-77
2023/01/18 03:48:53;;;;;;;3.08;0.80;;;9.20;96.70;;;;;;4967110;28;20050;-78
2023/01/18 03:51:26;;;;;;;1.70;0.50;;;9.20;96.70;;;;;;4976859;28;20082;-78
2023/01/18 03:54:03;;;;;;;5.20;0.55;;;9.30;96.70;;;;;;4967043;28;20493;-78
2023/01/18 03:56:38;;;;;;;4.15;0.65;;;9.30;96.70;;;;;;4991848;28;20050;-78
2023/01/18 03:59:07;;;;;;;3.25;0.80;;;9.30;96.70;;;;;;4967980;28;20133;-77
2023/01/18 04:01:37;;;;;;;4.53;0.80;;;9.20;96.70;;;;;;4975620;28;20627;-78
2023/01/18 04:04:05;;;;;;;6.28;1.00;;;9.20;96.70;;;;;;4972512;28;20054;-77
2023/01/18 04:06:33;;;;;;;4.55;0.70;;;9.20;96.70;;;;;;4972502;28;20606;-78
2023/01/18 04:09:01;;;;;;;4.78;0.50;;;9.30;96.70;;;;;;4966214;28;20101;-78
2023/01/18 04:11:29;;;;;;;4.97;0.70;;;9.20;96.70;;;;;;4977956;28;20402;-78
2023/01/18 04:13:57;;;;;;;5.25;0.98;;;9.30;96.70;;;;;;4961563;28;20058;-77
2023/01/18 04:16:25;;;;;;;3.83;0.80;;;9.30;96.70;;;;;;4963928;28;20485;-78
2023/01/18 04:18:54;;;;;;;2.72;1.00;;;9.30;96.70;;;;;;4962913;28;20050;-78
2023/01/18 04:21:22;;;;;;;4.20;0.63;;;9.20;96.70;;;;;;4969156;28;20555;-77
2023/01/18 04:23:50;;;;;;;3.78;0.68;;;9.20;96.70;;;;;;4962450;28;20114;-78
2023/01/18 04:26:18;;;;;;;9.15;1.00;;;9.20;96.70;;;;;;4966544;28;20057;-77
2023/01/18 04:28:46;;;;;;;3.92;0.60;;;9.30;96.70;;;;;;4978401;28;20042;-78
2023/01/18 04:31:14;;;;;;;4.22;0.63;;;9.20;96.70;;;;;;4971161;28;20107;-78
2023/01/18 04:33:42;;;;;;;4.65;0.80;;;9.20;96.70;;;;;;4962866;28;20796;-78
2023/01/18 04:36:12;;;;;;;4.28;0.52;;;9.20;96.70;;;;;;4967848;28;20097;-78
2023/01/18 04:38:40;;;;;;;5.55;1.05;;;9.20;96.70;;;;;;4982690;28;20526;-79
2023/01/18 04:41:07;;;;;;;5.32;0.93;;;9.20;96.70;;;;;;4977745;28;20130;-77
2023/01/18 04:43:35;;;;;;;4.22;1.10;;;9.20;96.70;;;;;;4964555;28;20501;-78
2023/01/18 04:46:04;;;;;;;2.65;0.60;;;9.20;96.70;;;;;;4965753;28;20042;-78
2023/01/18 04:48:32;;;;;;;3.70;0.60;;;9.20;96.70;;;;;;4981266;28;20049;-78
2023/01/18 04:51:00;;;;;;;7.63;1.33;;;9.20;96.70;;;;;;4974865;28;21306;-78
2023/01/18 04:53:29;;;;;;;6.15;0.90;;;9.20;96.70;;;;;;4976185;28;20104;-77
2023/01/18 04:55:57;;;;;;;4.72;0.98;;;9.20;96.70;;;;;;4964092;28;20047;-78
2023/01/18 04:58:25;;;;;;;3.00;0.65;;;9.30;96.70;;;;;;4982414;28;20049;-78
2023/01/18 05:00:53;;;;;;;5.40;0.90;;;9.30;96.70;;;;;;4971914;28;20049;-79
2023/01/18 05:03:21;;;;;;;3.53;1.00;;;9.30;96.70;;;;;;5000737;28;20078;-78
2023/01/18 05:05:49;;;;;;;5.88;0.90;;;9.30;96.70;;;;;;4986700;28;20084;-78
2023/01/18 05:08:17;;;;;;;4.80;1.00;;;9.30;96.70;;;;;;5001393;28;20583;-78
2023/01/18 05:10:47;;;;;;;9.52;2.13;;;9.20;96.70;;;;;;4977951;28;20038;-77
2023/01/18 05:13:16;;;;;;;6.47;1.55;;;9.10;96.70;;;;;;4972108;28;20051;-77
2023/01/18 05:15:44;;;;;;;5.22;1.13;;;9.00;96.70;;;;;;4973872;28;20050;-77
2023/01/18 05:18:12;;;;;;;9.60;1.55;;;8.90;96.70;;;;;;4972644;28;20051;-78
2023/01/18 05:20:40;;;;;;;5.97;1.50;;;9.00;96.70;;;;;;4967248;28;20042;-77
2023/01/18 05:23:09;;;;;;;5.82;1.45;;;9.00;96.70;;;;;;4965627;28;20051;-77
2023/01/18 05:25:38;;;;;;;10.77;1.50;;;9.00;96.70;;;;;;4966991;28;20065;-79
2023/01/18 05:28:08;;;;;;;11.20;1.38;;;9.00;96.70;;;;;;4965238;28;20149;-78
2023/01/18 05:30:39;;;;;;;7.72;1.48;;;9.00;96.70;;;;;;4968066;28;20049;-79
2023/01/18 05:33:08;;;;;;;8.27;1.92;;;9.00;96.70;;;;;;4983557;28;20050;-77
2023/01/18 05:35:36;;;;;;;9.45;1.75;;;9.00;96.70;;;;;;4981023;28;20046;-76
2023/01/18 05:38:04;;;;;;;6.07;1.70;;;9.00;96.70;;;;;;4975969;28;20509;-76
2023/01/18 05:40:32;;;;;;;9.13;2.70;;;9.00;96.70;;;;;;4982227;28;20074;-76
2023/01/18 05:43:00;;;;;;;8.90;2.47;;;9.00;96.70;;;;;;4965450;28;20043;-76
2023/01/18 05:45:29;;;;;;;9.27;1.85;;;9.00;96.70;;;;;;4968685;28;20599;-77
2023/01/18 05:47:58;;;;;;;9.63;1.67;;;8.90;96.70;;;;;;4964907;28;20108;-76
2023/01/18 05:50:26;;;;;;;5.03;0.95;;;8.90;96.70;;;;;;4964803;28;20047;-77
2023/01/18 05:52:55;;;;;;;6.57;1.25;;;9.00;96.70;;;;;;4966312;28;20122;-76
2023/01/18 05:55:24;;;;;;;4.93;1.33;;;9.00;96.70;;;;;;4967096;28;20046;-77
2023/01/18 05:57:52;;;;;;;5.05;1.10;;;9.10;96.70;;;;;;4983062;28;20046;-77
2023/01/18 06:00:21;;;;;;;4.55;1.33;;;9.10;96.70;;;;;;4985365;28;20043;-77
2023/01/18 06:02:52;;;;;;;5.70;1.80;;;9.10;96.70;;;;;;4986726;28;20038;-75
2023/01/18 06:05:20;;;;;;;5.95;1.73;;;9.10;96.70;;;;;;4984521;28;20065;-77
2023/01/18 06:07:48;;;;;;;5.22;1.15;;;9.10;96.70;;;;;;4966822;28;20042;-76
2023/01/18 06:10:17;;;;;;;7.63;1.73;;;9.10;96.70;;;;;;4980409;28;20050;-77
2023/01/18 06:12:46;;;;;;;5.20;1.75;;;9.10;96.70;;;;;;4973103;28;20043;-77
2023/01/18 06:15:14;;;;;;;7.80;2.10;;;9.10;96.70;;;;;;4969265;28;20051;-76
2023/01/18 06:17:45;;;;;;;9.07;1.60;;;9.10;96.70;;;;;;4966195;28;20524;-76
2023/01/18 06:20:16;;;;;;;9.02;2.40;;;9.00;96.70;;;;;;4964159;28;20059;-76
2023/01/18 06:22:45;;;;;;;9.73;2.80;;;8.90;96.70;;;;;;4975901;28;20089;-76
2023/01/18 06:25:14;;;;;;;12.02;2.78;;;8.80;96.70;;;;;;4983754;28;20500;-75
2023/01/18 06:27:42;;;;;;;16.60;3.50;;;8.60;96.70;;;;;;4973321;28;20704;-76
2023/01/18 06:30:11;;;;;;;12.77;3.70;;;8.30;96.70;;;;;;4976303;28;20053;-74
2023/01/18 06:32:40;;;;;;;14.20;3.45;;;8.30;96.70;;;;;;4983507;28;20042;-75
2023/01/18 06:35:08;;;;;;;12.70;3.65;;;8.30;96.70;;;;;;4982147;28;20084;-77
2023/01/18 06:37:38;;;;;;;10.63;2.08;;;8.30;96.70;;;;;;4971084;28;20065;-76
2023/01/18 06:40:08;;;;;;;9.98;2.33;;;8.30;96.70;;;;;;4962035;28;20500;-76
2023/01/18 06:42:37;;;;;;;18.00;4.28;;;8.20;96.70;;;;;;4994814;28;20042;-76
2023/01/18 06:45:06;;;;;;;11.82;2.20;;;8.00;96.70;;;;;;4983289;28;20046;-76
2023/01/18 06:47:35;;;;;;;6.57;1.83;;;8.00;96.70;;;;;;4990748;28;20064;-77
2023/01/18 06:50:04;;;;;;;7.00;1.50;;;8.00;96.70;;;;;;4965245;28;20062;-77
2023/01/18 06:52:32;;;;;;;7.30;1.52;;;8.10;96.70;;;;;;4976628;28;20141;-76
2023/01/18 06:55:02;;;;;;;6.47;1.60;;;8.10;96.70;;;;;;4973323;28;20069;-77
2023/01/18 06:57:31;;;;;;;5.55;1.50;;;8.00;96.70;;;;;;4965774;28;20149;-77
2023/01/18 07:00:00;;;;;;;8.35;1.70;;;7.90;96.70;;;;;;4965615;28;20504;-77
2023/01/18 07:02:29;;;;;;;5.50;1.42;;;8.00;96.70;;;;;;4974131;28;20094;-77
2023/01/18 07:04:57;;;;;;;6.07;2.10;;;8.10;96.70;;;;;;4982601;28;20042;-77
2023/01/18 07:07:26;;;;;;;5.28;1.50;;;8.10;96.70;;;;;;4981783;28;20408;-77
2023/01/18 07:09:54;;;;;;;6.35;1.70;;;8.10;96.70;;;;;;4979030;28;20050;-76
2023/01/18 07:12:24;;;;;;;12.57;2.72;;;8.10;96.70;;;;;;4994460;28;20141;-76
2023/01/18 07:14:53;;;;;;;7.68;2.05;;;8.10;96.70;;;;;;4982049;28;20440;-76
2023/01/18 07:17:21;;;;;;;7.35;2.00;;;8.10;96.70;;;;;;4974766;28;20062;-76
2023/01/18 07:19:50;;;;;;;9.50;2.10;;;8.00;96.70;;;;;;4968634;28;20078;-77
2023/01/18 07:22:18;;;;;;;13.65;3.47;;;7.90;96.70;;;;;;4979673;28;20050;-77
2023/01/18 07:24:47;;;;;;;10.52;2.83;;;7.90;96.70;;;;;;4984999;28;20913;-76
2023/01/18 07:27:15;;;;;;;9.07;3.15;;;7.90;96.70;;;;;;4997645;28;20070;-79
2023/01/18 07:29:45;;;;;;;8.15;1.67;;;7.90;96.70;;;;;;4974264;28;20054;-78
2023/01/18 07:32:16;;;;;;;7.07;2.53;;;7.90;96.70;;;;;;4983222;28;20047;-77
2023/01/18 07:34:44;;;;;;;4.82;1.02;;;7.90;96.70;;;;;;4981829;28;20065;-78
2023/01/18 07:37:13;;;;;;;5.00;1.60;;;8.00;96.70;;;;;;4965404;28;20057;-78
2023/01/18 07:39:41;;;;;;;6.40;1.00;;;8.10;96.70;;;;;;4964494;28;20066;-79
2023/01/18 07:42:11;;;;;;;3.72;0.80;;;8.20;96.70;;;;;;4980227;28;20393;-77
2023/01/18 07:44:39;;;;;;;5.93;0.70;;;8.40;96.70;;;;;;4983979;28;20129;-77
2023/01/18 07:47:09;;;;;;;6.97;0.70;;;8.40;96.70;;;;;;4972914;28;20061;-77
2023/01/18 07:49:38;;;;;;;4.65;1.08;;;8.60;96.70;;;;;;4974308;28;20074;-78
2023/01/18 07:52:06;;;;;;;4.03;0.63;;;8.70;96.70;;;;;;4970223;28;20035;-77
2023/01/18 07:54:35;;;;;;;5.70;0.50;;;8.70;96.70;;;;;;4974625;28;20058;-77
2023/01/18 07:57:03;;;;;;;4.03;0.70;;;8.70;96.70;;;;;;4969327;28;20043;-79
2023/01/18 07:59:32;;;;;;;6.68;0.88;;;8.80;96.70;;;;;;4972884;28;20042;-77
2023/01/18 08:02:02;;;;;;;3.22;0.70;;;8.80;96.70;;;;;;4969758;28;20073;-79
2023/01/18 08:04:32;;;;;;;4.65;1.13;;;8.80;96.70;;;;;;4982850;28;20054;-79
2023/01/18 08:07:00;;;;;;;2.83;0.75;;;8.80;96.70;;;;;;4971812;28;20086;-79
2023/01/18 08:09:29;;;;;;;5.70;0.98;;;8.70;96.70;;;;;;4970458;28;20046;-78
2023/01/18 08:11:57;;;;;;;4.30;0.40;;;8.80;96.70;;;;;;4971226;28;20052;-79
2023/01/18 08:14:26;;;;;;;3.33;0.68;;;8.80;96.70;;;;;;4983709;28;20050;-79
2023/01/18 08:16:54;;;;;;;3.47;0.73;;;8.90;96.70;;;;;;4974514;28;20061;-79
2023/01/18 08:19:22;;;;;;;2.63;0.55;;;8.90;96.70;;;;;;4973227;28;20093;-78
2023/01/18 08:21:52;;;;;;;1.30;0.57;;;9.00;96.70;;;;;;4980002;28;20065;-79
2023/01/18 08:24:24;;;;;;;4.07;0.90;;;9.00;96.70;;;;;;4985225;28;20098;-76
2023/01/18 08:26:54;;;;;;;2.63;0.70;;;9.00;96.70;;;;;;4976879;28;20475;-77
2023/01/18 08:29:22;;;;;;;8.43;2.65;;;9.20;96.70;;;;;;4969870;28;20047;-78
2023/01/18 08:31:51;;;;;;;9.65;3.13;;;9.20;96.70;;;;;;4983393;28;20419;-77
2023/01/18 08:34:20;;;;;;;4.80;1.55;;;9.20;96.70;;;;;;4975465;28;20046;-78
2023/01/18 08:36:49;;;;;;;12.82;1.60;;;9.40;96.70;;;;;;4987769;28;20061;-77
2023/01/18 08:39:20;;;;;;;4.18;1.90;;;9.50;96.70;;;;;;4969025;28;20066;-77
2023/01/18 08:41:49;;;;;;;3.60;1.15;;;9.60;96.70;;;;;;4976234;28;20051;-76
2023/01/18 08:44:17;;;;;;;4.03;1.10;;;9.60;96.70;;;;;;4974597;28;20050;-77
2023/01/18 08:46:46;;;;;;;3.72;1.00;;;9.70;96.70;;;;;;4976423;28;20050;-76
2023/01/18 08:49:15;;;;;;;4.70;1.30;;;9.70;96.70;;;;;;4973147;28;20703;-76
2023/01/18 08:51:43;;;;;;;4.20;1.02;;;9.70;96.70;;;;;;4971106;28;20562;-75
2023/01/18 08:54:11;;;;;;;6.30;1.90;;;9.80;96.70;;;;;;4985324;28;20539;-77
2023/01/18 08:56:42;;;;;;;4.88;1.38;;;9.80;96.70;;;;;;4975535;28;20051;-76
2023/01/18 08:59:10;;;;;;;3.17;1.02;;;9.80;96.70;;;;;;4967746;28;20043;-76
2023/01/18 09:01:39;;;;;;;3.85;0.82;;;9.90;96.70;;;;;;4971458;28;20856;-76
2023/01/18 09:04:07;;;;;;;7.35;1.30;;;9.90;96.70;;;;;;4989546;28;20038;-78
2023/01/18 09:06:36;;;;;;;2.70;0.70;;;9.90;96.70;;;;;;4976922;28;20057;-77
2023/01/18 09:09:04;;;;;;;3.92;0.70;;;10.00;96.70;;;;;;4974342;28;20081;-79
2023/01/18 09:11:33;;;;;;;3.30;0.90;;;10.10;96.70;;;;;;4983498;28;20077;-76
2023/01/18 09:14:03;;;;;;;5.18;1.00;;;10.10;96.70;;;;;;4984693;28;20663;-76
2023/01/18 09:16:31;;;;;;;6.32;1.30;;;10.20;96.70;;;;;;4981497;28;20465;-75
2023/01/18 09:19:04;;;;;;;3.63;1.10;;;10.10;96.70;;;;;;4966757;28;20042;-75
2023/01/18 09:21:34;;;;;;;4.47;0.82;;;10.20;96.70;;;;;;4972653;28;20061;-75
2023/01/18 09:24:02;;;;;;;3.17;0.85;;;10.30;96.70;;;;;;4965898;28;20057;-75
2023/01/18 09:26:31;;;;;;;4.60;1.35;;;10.20;96.70;;;;;;4966212;28;20132;-75
2023/01/18 09:28:59;;;;;;;4.15;0.52;;;10.20;96.70;;;;;;4966471;28;20145;-74
2023/01/18 09:31:29;;;;;;;3.28;0.60;;;10.10;96.70;;;;;;4979546;28;20463;-75
2023/01/18 09:33:58;;;;;;;4.80;0.73;;;10.10;96.70;;;;;;4983156;28;20455;-75
2023/01/18 09:36:45;;;;;;;;;;;10.10;96.70;;;;;;4989717;28;20050;-75
2023/01/18 09:39:13;;;;;;;4.97;0.75;;;10.10;96.70;;;;;;4980116;28;19926;-74
2023/01/18 09:41:45;;;;;;;4.07;1.00;;;10.00;96.70;;;;;;4985304;28;20077;-74
2023/01/18 09:44:20;;;;;;;4.50;0.80;;;10.10;96.70;;;;;;4983389;28;20054;-74
2023/01/18 09:46:53;;;;;;;2.53;0.60;;;10.10;96.70;;;;;;4979239;28;20453;-74
2023/01/18 09:49:29;;;;;;;4.82;0.70;;;10.20;96.70;;;;;;4964616;28;20058;-73
2023/01/18 09:52:18;;;;;;;3.67;1.10;;;10.20;96.70;;;;;;4970574;28;20460;-74
2023/01/18 09:54:54;;;;;;;2.75;0.60;;;10.10;96.70;;;;;;4983762;28;20046;-74
2023/01/18 09:57:43;;;;;;;3.22;1.00;;;10.10;96.70;;;;;;4979753;28;20812;-74
2023/01/18 10:00:20;;;;;;;2.42;0.80;;;10.10;96.70;;;;;;4973303;28;20039;-74
2023/01/18 10:02:54;;;;;;;2.95;0.98;;;10.20;96.70;;;;;;4983565;28;20046;-73
2023/01/18 10:05:25;;;;;;;3.47;0.95;;;10.30;96.70;;;;;;4983923;28;20132;-73
2023/01/18 10:08:02;;;;;;;4.35;1.08;;;10.40;96.70;;;;;;4966281;28;20070;-74
2023/01/18 10:10:36;;;;;;;4.63;0.93;;;10.60;96.70;;;;;;4964179;28;20047;-74
2023/01/18 10:13:36;;;;;;;2.42;0.80;;;10.70;96.70;;;;;;4970417;28;20053;-74
2023/01/18 10:16:13;;;;;;;5.32;0.77;;;10.80;96.70;;;;;;4970247;28;20082;-73
2023/01/18 10:18:44;;;;;;;;;;;10.70;96.70;;;;;;4964873;28;20074;-74
2023/01/18 10:21:21;;;;;;;3.53;0.73;;;10.70;96.70;;;;;;4965344;28;19933;-74
2023/01/18 10:24:04;;;;;;;2.67;0.85;;;10.50;96.70;;;;;;4986885;28;20058;-74
2023/01/18 10:26:37;;;;;;;4.10;1.10;;;10.40;96.70;;;;;;4964997;28;20043;-74
2023/01/18 10:29:11;;;;;;;4.60;1.00;;;10.10;96.70;;;;;;4981730;28;20039;-74
2023/01/18 10:31:50;;;;;;;3.85;1.02;;;9.60;96.70;;;;;;4973784;28;20142;-73
2023/01/18 10:34:22;;;;;;;6.97;1.38;;;9.30;96.70;;;;;;4979972;28;20054;-73
2023/01/18 10:36:52;;;;;;;2.95;0.90;;;9.20;96.70;;;;;;4975594;28;20141;-73
2023/01/18 10:39:28;;;;;;;3.00;0.90;;;9.10;96.70;;;;;;4964376;28;20635;-74
2023/01/18 10:42:00;;;;;;;5.17;1.00;;;9.10;96.70;;;;;;4978557;28;20500;-73
2023/01/18 10:44:30;;;;;;;5.57;1.92;;;8.90;96.70;;;;;;4966397;28;20054;-73
2023/01/18 10:47:00;;;;;;;4.70;1.33;;;8.80;96.70;;;;;;4981260;28;20056;-73
2023/01/18 10:49:41;;;;;;;7.53;1.30;;;8.60;96.70;;;;;;4969064;28;20043;-74
2023/01/18 10:52:23;;;;;;;6.03;2.28;;;8.60;96.70;;;;;;4966514;28;20054;-74
2023/01/18 10:54:54;;;;;;;2.75;0.95;;;8.50;96.70;;;;;;4968148;28;20042;-73
2023/01/18 10:57:27;;;;;;;4.80;0.95;;;8.30;96.70;;;;;;4968032;28;20047;-73
2023/01/18 10:59:55;;;;;;;2.45;0.68;;;8.20;96.70;;;;;;4964400;28;20043;-74
2023/01/18 11:02:28;;;;;;;5.18;1.17;;;8.20;96.70;;;;;;4963684;28;20119;-74
2023/01/18 11:05:11;;;;;;;4.95;1.40;;;8.30;96.70;;;;;;4971295;28;20070;-74
2023/01/18 11:07:39;;;;;;;6.25;1.98;;;8.50;96.70;;;;;;4989420;28;20070;-73
2023/01/18 11:10:23;;;;;;;7.10;1.88;;;8.70;96.70;;;;;;4969435;28;20053;-74
2023/01/18 11:12:51;;;;;;;5.00;1.90;;;9.00;96.70;;;;;;4966690;28;20078;-73
2023/01/18 11:15:23;;;;;;;4.63;2.22;;;9.30;96.70;;;;;;4950112;28;20097;-74
2023/01/18 11:18:08;;;;;;;5.20;2.88;;;9.50;96.70;;;;;;4964683;28;20047;-74
2023/01/18 11:20:46;;;;;;;8.85;4.15;;;9.70;96.70;;;;;;4964847;28;20117;-75
2023/01/18 11:23:19;;;;;;;6.70;2.83;;;9.90;96.70;;;;;;4983420;28;20078;-74
2023/01/18 11:25:56;;;;;;;6.13;2.35;;;10.10;96.70;;;;;;4978913;28;20535;-74
2023/01/18 11:28:26;;;;;;;;;;;10.30;96.70;;;;;;4965460;28;20066;-74
2023/01/18 11:30:57;;;;;;;6.78;1.45;;;10.30;96.70;;;;;;4964976;28;19981;-74
2023/01/18 11:33:28;;;;;;;4.70;1.48;;;10.40;96.70;;;;;;4964149;28;20461;-74
2023/01/18 11:36:00;;;;;;;2.72;0.80;;;10.50;96.70;;;;;;4974998;28;20042;-74
2023/01/18 11:38:31;;;;;;;3.28;0.95;;;10.50;96.70;;;;;;4983101;28;20066;-74
2023/01/18 11:41:05;;;;;;;5.57;2.85;;;10.70;96.70;;;;;;4974175;28;20070;-74
2023/01/18 11:43:36;;;;;;;5.28;2.33;;;10.80;96.70;;;;;;4967549;28;20378;-73
2023/01/18 11:46:23;;;;;;;6.85;3.20;;;10.80;96.70;;;;;;4980800;28;20116;-74
2023/01/18 11:48:56;;;;;;;9.35;5.05;;;10.70;96.70;;;;;;4964304;28;20081;-73
2023/01/18 11:51:32;;;;;;;8.05;3.45;;;10.50;96.70;;;;;;4981579;28;20057;-74
2023/01/18 11:54:08;;;;;;;5.40;2.40;;;10.30;96.70;;;;;;4966187;28;20523;-74
2023/01/18 11:56:41;;;;;;;7.55;3.60;;;10.20;96.70;;;;;;4981120;28;20054;-73
2023/01/18 11:59:14;;;;;;;7.43;4.13;;;10.20;96.70;;;;;;4974870;28;20042;-74
2023/01/18 12:01:58;;;;;;;6.15;2.63;;;10.10;96.70;;;;;;4964273;28;20164;-74
2023/01/18 12:04:40;;;;;;;3.65;1.35;;;10.10;96.70;;;;;;4962668;28;20563;-73
2023/01/18 12:07:26;;;;;;;6.95;1.70;;;10.00;96.70;;;;;;4965051;28;20050;-74
2023/01/18 12:09:58;;;;;;;3.75;1.45;;;9.90;96.70;;;;;;4962693;28;20361;-74
2023/01/18 12:12:39;;;;;;;2.92;1.00;;;9.90;96.70;;;;;;4964194;28;20051;-74
2023/01/18 12:15:28;;;;;;;3.90;1.85;;;9.90;96.70;;;;;;4946365;28;20135;-73
2023/01/18 12:18:08;;;;;;;3.72;1.33;;;9.90;96.70;;;;;;4963763;28;20055;-74
2023/01/18 12:20:51;;;;;;;4.32;1.75;;;10.00;96.70;;;;;;4965103;28;20051;-73
2023/01/18 12:23:48;;;;;;;3.42;1.33;;;10.10;96.70;;;;;;4969922;28;20502;-73
2023/01/18 12:26:28;;;;;;;5.20;1.47;;;10.10;96.70;;;;;;4971473;28;20058;-73
2023/01/18 12:29:31;;;;;;;3.92;1.33;;;10.20;96.70;;;;;;4979550;28;20699;-73
2023/01/18 12:32:13;;;;;;;3.92;1.30;;;10.20;96.70;;;;;;4967971;28;20058;-74
2023/01/18 12:35:01;;;;;;;3.00;1.30;;;10.30;96.70;;;;;;4969066;28;20057;-74
2023/01/18 12:37:49;;;;;;;3.38;1.55;;;10.30;96.70;;;;;;4976791;28;20046;-73
2023/01/18 12:40:35;;;;;;;3.83;1.85;;;10.20;96.70;;;;;;4971864;28;20411;-73
2023/01/18 12:43:16;;;;;;;6.37;3.27;;;10.30;96.70;;;;;;4981298;28;20050;-74
2023/01/18 12:45:50;;;;;;;7.07;2.85;;;10.30;96.70;;;;;;4981810;28;20305;-74
2023/01/18 12:48:26;;;;;;;7.75;4.72;;;10.30;96.70;;;;;;4980834;28;21972;-74
2023/01/18 12:50:55;;;;;;;6.50;3.83;;;10.30;96.70;;;;;;4976505;28;20105;-74
2023/01/18 12:53:34;;;;;;;4.80;2.28;;;10.30;96.70;;;;;;4966431;28;20121;-74
2023/01/18 12:56:12;;;;;;;6.95;2.05;;;10.40;96.70;;;;;;4963393;28;20046;-73
2023/01/18 12:58:42;;;;;;;5.40;2.92;;;10.40;96.70;;;;;;4971630;28;20050;-73
2023/01/18 13:01:19;;;;;;;6.03;3.58;;;10.40;96.70;;;;;;4964122;28;20121;-73
2023/01/18 13:03:50;;;;;;;8.07;3.60;;;10.40;96.70;;;;;;4968239;28;20042;-74
2023/01/18 13:06:19;;;;;;;6.65;3.45;;;10.40;96.70;;;;;;4970423;28;20413;-73
2023/01/18 13:08:52;;;;;;;4.72;1.70;;;10.40;96.70;;;;;;4970526;28;20089;-74
2023/01/18 13:11:25;;;;;;;3.50;1.63;;;10.40;96.70;;;;;;4969047;28;20051;-74
2023/01/18 13:14:00;;;;;;;4.78;1.63;;;10.40;96.70;;;;;;4966128;28;20072;-74
2023/01/18 13:16:39;;;;;;;3.33;2.05;;;10.30;96.70;;;;;;4968457;28;20055;-74
2023/01/18 13:19:11;;;;;;;2.85;1.30;;;10.30;96.70;;;;;;4971150;28;20478;-74
2023/01/18 13:21:50;;;;;;;3.63;1.60;;;10.30;96.70;;;;;;4990835;28;20059;-74
2023/01/18 13:24:28;;;;;;;4.13;1.98;;;10.20;96.70;;;;;;4966335;28;20047;-74
2023/01/18 13:27:10;;;;;;;3.20;1.15;;;10.30;96.70;;;;;;4972581;28;20689;-73
2023/01/18 13:29:39;;;;;;;3.38;1.50;;;10.20;96.70;;;;;;4970254;28;20064;-74
2023/01/18 13:32:30;;;;;;;2.83;1.60;;;10.20;96.70;;;;;;4969271;28;20118;-74
2023/01/18 13:35:04;;;;;;;3.78;2.08;;;10.20;96.70;;;;;;4966469;28;20145;-74
2023/01/18 13:37:49;;;;;;;3.00;1.60;;;10.10;96.70;;;;;;4965400;28;20054;-74
2023/01/18 13:40:23;;;;;;;3.28;1.58;;;10.10;96.70;;;;;;4972389;28;20105;-74
2023/01/18 13:42:53;;;;;;;4.07;1.55;;;10.10;96.70;;;;;;4974016;28;20043;-73
2023/01/18 13:45:23;;;;;;;3.85;1.60;;;10.10;96.70;;;;;;4969479;28;20132;-74
2023/01/18 13:47:59;;;;;;;3.50;1.25;;;9.90;96.70;;;;;;4974745;28;20504;-73
2023/01/18 13:50:44;;;;;;;3.40;1.40;;;9.90;96.70;;;;;;4966357;28;20081;-74
2023/01/18 13:53:26;;;;;;;4.38;1.67;;;9.90;96.70;;;;;;4994078;28;20042;-75